Time;durP1;ratioP1;P1;durP2;ratioP2;P2;SDS_P1;SDS_P2;PMS_P1;PMS_P2;Temp;Humidity;BMP_temperature;BMP_pressure;BME280_temperature;BME280_humidity;BME280_pressure;Samples;Min_cycle;Max_cycle;Signal;HPM_P1;HPM_P2
2020/12/03 00:00:37;;;;;;;39.07;34.23;;;1.00;99.90;;;;;;5131664;27;20646;-86
2020/12/03 00:03:13;;;;;;;41.27;33.47;;;1.00;99.90;;;;;;5127086;27;20616;-86
2020/12/03 00:05:40;;;;;;;38.63;32.50;;;1.00;99.90;;;;;;5104761;27;20622;-86
2020/12/03 00:08:09;;;;;;;43.37;34.30;;;0.90;99.90;;;;;;5128839;27;20623;-87
2020/12/03 00:10:35;;;;;;;40.73;35.03;;;1.00;99.90;;;;;;5125408;27;20813;-85
2020/12/03 00:13:15;;;;;;;44.50;32.73;;;1.00;99.90;;;;;;5131051;27;20619;-86
2020/12/03 00:15:42;;;;;;;42.63;33.50;;;1.00;99.90;;;;;;5122250;27;20622;-86
2020/12/03 00:18:09;;;;;;;37.80;31.40;;;1.00;99.90;;;;;;5130619;27;20931;-86
2020/12/03 00:20:36;;;;;;;42.30;31.90;;;0.90;99.90;;;;;;5130365;27;20646;-85
2020/12/03 00:23:03;;;;;;;47.73;34.77;;;1.00;99.90;;;;;;5126877;27;20631;-86
2020/12/03 00:25:30;;;;;;;38.93;32.00;;;1.10;99.90;;;;;;5128439;27;20633;-85
2020/12/03 00:27:57;;;;;;;40.33;33.00;;;1.10;99.90;;;;;;5127037;27;20645;-86
2020/12/03 00:30:24;;;;;;;42.27;33.97;;;1.00;99.90;;;;;;5109905;27;20993;-86
2020/12/03 00:32:51;;;;;;;39.57;34.10;;;1.00;99.90;;;;;;5126227;27;20630;-86
2020/12/03 00:35:20;;;;;;;42.53;34.10;;;1.00;99.90;;;;;;5128706;27;20627;-87
2020/12/03 00:37:47;;;;;;;42.97;34.00;;;1.10;99.90;;;;;;5128496;27;20618;-86
2020/12/03 00:40:13;;;;;;;42.47;35.17;;;1.10;99.90;;;;;;5123484;27;20654;-87
2020/12/03 00:42:42;;;;;;;42.63;32.67;;;1.10;99.90;;;;;;5111861;27;20620;-87
2020/12/03 00:45:14;;;;;;;44.60;33.03;;;1.00;99.90;;;;;;5128071;27;20628;-87
2020/12/03 00:47:41;;;;;;;44.23;33.97;;;1.10;99.90;;;;;;5126297;27;20621;-86
2020/12/03 00:50:10;;;;;;;40.60;32.63;;;1.10;99.90;;;;;;5106473;27;20690;-86
2020/12/03 00:52:36;;;;;;;43.23;35.93;;;1.10;99.90;;;;;;5126235;27;21030;-84
2020/12/03 00:55:03;;;;;;;41.87;32.10;;;1.10;99.90;;;;;;5126052;27;20588;-86
2020/12/03 00:57:29;;;;;;;40.33;33.63;;;1.20;99.90;;;;;;5125071;27;20603;-85
2020/12/03 00:59:56;;;;;;;40.70;32.10;;;1.20;99.90;;;;;;5122399;27;20675;-85
2020/12/03 01:02:22;;;;;;;38.53;32.57;;;1.30;99.90;;;;;;5109182;27;20631;-85
2020/12/03 01:04:49;;;;;;;45.03;34.33;;;1.30;99.90;;;;;;5126333;27;20996;-86
2020/12/03 01:07:15;;;;;;;41.80;32.10;;;1.20;99.90;;;;;;5123931;27;21061;-85
2020/12/03 01:09:43;;;;;;;39.37;31.70;;;1.20;99.90;;;;;;5122301;27;20952;-85
2020/12/03 01:12:11;;;;;;;39.83;32.43;;;1.20;99.90;;;;;;5127139;27;20629;-86
2020/12/03 01:14:38;;;;;;;41.60;34.30;;;1.20;99.90;;;;;;5126844;27;20661;-85
2020/12/03 01:17:09;;;;;;;40.77;31.13;;;1.20;99.90;;;;;;5126044;27;20641;-88
2020/12/03 01:19:35;;;;;;;41.10;33.50;;;1.20;99.90;;;;;;5124250;27;21695;-87
2020/12/03 01:22:02;;;;;;;44.00;34.67;;;1.20;99.90;;;;;;5124742;27;20629;-87
2020/12/03 01:24:29;;;;;;;41.57;32.70;;;1.30;99.90;;;;;;5127593;27;20623;-88
2020/12/03 01:26:55;;;;;;;43.20;33.30;;;1.20;99.90;;;;;;5127683;27;20615;-88
2020/12/03 01:29:22;;;;;;;42.00;34.00;;;1.20;99.90;;;;;;5106706;27;20671;-87
2020/12/03 01:31:49;;;;;;;43.03;35.17;;;1.20;99.90;;;;;;5129573;27;20634;-87
2020/12/03 01:34:16;;;;;;;45.60;33.93;;;1.30;99.90;;;;;;5122606;27;20608;-88
2020/12/03 01:36:42;;;;;;;44.83;34.27;;;1.40;99.90;;;;;;5130883;27;20647;-87
2020/12/03 01:39:09;;;;;;;41.17;33.40;;;1.30;99.90;;;;;;5131446;27;20667;-88
2020/12/03 01:41:36;;;;;;;41.30;32.40;;;1.30;99.90;;;;;;5148477;27;20629;-88
2020/12/03 01:44:04;;;;;;;41.97;33.17;;;1.30;99.90;;;;;;5138866;27;20650;-87
2020/12/03 01:46:30;;;;;;;50.20;37.30;;;1.30;99.90;;;;;;5128735;27;20965;-87
2020/12/03 01:49:03;;;;;;;44.23;35.47;;;1.30;99.90;;;;;;5127033;27;20611;-86
2020/12/03 01:51:36;;;;;;;42.90;33.63;;;1.30;99.90;;;;;;5127216;27;20643;-87
2020/12/03 01:54:07;;;;;;;43.77;35.27;;;1.50;99.90;;;;;;5122525;27;20619;-86
2020/12/03 01:57:06;;;;;;;42.10;33.90;;;1.50;99.90;;;;;;5129558;27;20614;-86
2020/12/03 01:59:36;;;;;;;37.67;32.57;;;1.50;99.90;;;;;;5037031;27;20678;-86
2020/12/03 02:02:02;;;;;;;43.40;34.30;;;1.30;99.90;;;;;;5115766;27;20654;-86
2020/12/03 02:04:29;;;;;;;41.77;33.83;;;1.30;99.90;;;;;;5127703;27;20971;-87
2020/12/03 02:07:02;;;;;;;45.93;34.70;;;1.30;99.90;;;;;;5127408;27;20633;-87
2020/12/03 02:09:29;;;;;;;42.30;33.63;;;1.30;99.90;;;;;;5126717;27;21086;-87
2020/12/03 02:11:56;;;;;;;43.10;34.23;;;1.30;99.90;;;;;;5109674;27;21061;-86
2020/12/03 02:14:23;;;;;;;44.63;34.07;;;1.30;99.90;;;;;;5124697;27;20618;-86
2020/12/03 02:16:50;;;;;;;43.10;34.30;;;1.50;99.90;;;;;;5126083;27;20683;-86
2020/12/03 02:19:21;;;;;;;41.17;33.70;;;1.50;99.90;;;;;;5124602;27;20670;-86
2020/12/03 02:21:58;;;;;;;45.70;33.73;;;1.40;99.90;;;;;;5123438;27;20974;-87
2020/12/03 02:24:25;;;;;;;42.30;32.90;;;1.40;99.90;;;;;;5121591;27;20618;-88
2020/12/03 02:26:52;;;;;;;44.80;35.03;;;1.50;99.90;;;;;;5128241;27;20611;-87
2020/12/03 02:29:20;;;;;;;45.10;33.90;;;1.50;99.90;;;;;;5119613;27;20630;-86
2020/12/03 02:31:47;;;;;;;43.13;34.17;;;1.30;99.90;;;;;;5124683;27;20654;-86
2020/12/03 02:34:14;;;;;;;46.20;36.13;;;1.20;99.90;;;;;;5119686;27;21020;-86
2020/12/03 02:36:41;;;;;;;45.13;34.57;;;1.10;99.90;;;;;;5127666;27;20619;-86
2020/12/03 02:39:08;;;;;;;44.80;32.97;;;1.20;99.90;;;;;;5125402;27;20681;-86
2020/12/03 02:41:35;;;;;;;41.87;32.63;;;1.20;99.90;;;;;;5103449;27;20607;-86
2020/12/03 02:44:01;;;;;;;49.60;35.73;;;1.10;99.90;;;;;;5121932;27;20620;-85
2020/12/03 02:46:27;;;;;;;47.67;36.87;;;1.10;99.90;;;;;;5125859;27;20615;-86
2020/12/03 02:48:54;;;;;;;45.70;35.73;;;1.30;99.90;;;;;;5124764;27;20634;-86
2020/12/03 02:51:20;;;;;;;52.13;37.07;;;1.10;99.90;;;;;;5126013;27;20665;-86
2020/12/03 02:53:46;;;;;;;44.77;32.10;;;1.20;99.90;;;;;;5121906;27;21079;-86
2020/12/03 02:56:14;;;;;;;52.30;37.03;;;1.10;99.90;;;;;;5124387;27;20996;-86
2020/12/03 02:58:40;;;;;;;44.43;32.20;;;1.00;99.90;;;;;;5122461;27;20662;-87
2020/12/03 03:01:06;;;;;;;49.53;34.90;;;1.00;99.90;;;;;;5125085;27;20655;-87
2020/12/03 03:03:33;;;;;;;49.40;33.73;;;0.90;99.90;;;;;;5124663;27;20646;-88
2020/12/03 03:06:01;;;;;;;48.70;35.73;;;1.00;99.90;;;;;;5127834;27;21266;-87
2020/12/03 03:08:27;;;;;;;49.83;35.73;;;1.00;99.90;;;;;;5126734;27;20607;-87
2020/12/03 03:10:54;;;;;;;48.77;35.10;;;1.00;99.90;;;;;;5124528;27;20638;-86
2020/12/03 03:13:21;;;;;;;48.77;35.03;;;1.10;99.90;;;;;;5125796;27;20625;-86
2020/12/03 03:15:47;;;;;;;51.50;34.07;;;1.00;99.90;;;;;;5125116;27;21208;-86
2020/12/03 03:18:14;;;;;;;45.57;32.57;;;1.00;99.90;;;;;;5126407;27;21399;-86
2020/12/03 03:20:40;;;;;;;48.63;34.43;;;1.00;99.90;;;;;;5128908;27;20675;-88
2020/12/03 03:23:07;;;;;;;49.07;33.50;;;1.10;99.90;;;;;;5131842;27;20623;-87
2020/12/03 03:25:33;;;;;;;49.43;36.10;;;0.90;99.90;;;;;;5128461;27;20631;-86
2020/12/03 03:28:00;;;;;;;47.67;34.60;;;0.80;99.90;;;;;;5131009;27;20615;-87
2020/12/03 03:30:27;;;;;;;49.70;35.17;;;0.90;99.90;;;;;;5129521;27;20642;-88
2020/12/03 03:32:54;;;;;;;45.73;33.20;;;0.90;99.90;;;;;;5134886;27;20641;-88
2020/12/03 03:35:22;;;;;;;48.90;35.67;;;0.90;99.90;;;;;;5139672;27;20631;-87
2020/12/03 03:37:48;;;;;;;45.30;33.43;;;0.80;99.90;;;;;;5140845;27;20611;-87
2020/12/03 03:40:15;;;;;;;49.57;35.13;;;0.80;99.90;;;;;;5142541;27;20681;-88
2020/12/03 03:42:42;;;;;;;50.53;36.00;;;0.90;99.90;;;;;;5148314;27;20638;-87
2020/12/03 03:45:10;;;;;;;46.73;34.20;;;0.90;99.90;;;;;;5138540;27;21268;-87
2020/12/03 03:47:38;;;;;;;47.50;35.77;;;0.90;99.90;;;;;;5134504;27;20717;-87
2020/12/03 03:50:05;;;;;;;43.53;33.67;;;0.80;99.90;;;;;;5137711;27;20993;-89
2020/12/03 03:52:32;;;;;;;42.77;33.83;;;0.90;99.90;;;;;;5121247;27;20627;-88
2020/12/03 03:54:59;;;;;;;51.10;36.53;;;0.90;99.90;;;;;;5140166;27;20639;-88
2020/12/03 03:57:27;;;;;;;48.80;35.33;;;0.90;99.90;;;;;;5137217;27;20625;-87
2020/12/03 03:59:53;;;;;;;45.07;33.77;;;1.10;99.90;;;;;;5136635;27;20899;-88
2020/12/03 04:02:21;;;;;;;45.30;33.70;;;1.20;99.90;;;;;;5144268;27;20614;-88
2020/12/03 04:04:52;;;;;;;47.37;35.10;;;1.20;99.90;;;;;;5132190;27;20594;-87
2020/12/03 04:07:19;;;;;;;45.23;35.13;;;1.00;99.90;;;;;;5131506;27;20618;-87
2020/12/03 04:09:47;;;;;;;40.30;33.87;;;1.00;99.90;;;;;;5124956;27;20643;-87
2020/12/03 04:12:14;;;;;;;42.90;36.30;;;1.20;99.90;;;;;;5128466;27;21059;-87
2020/12/03 04:14:43;;;;;;;43.13;34.40;;;1.20;99.90;;;;;;5127684;27;20633;-87
2020/12/03 04:17:09;;;;;;;44.10;35.83;;;1.20;99.90;;;;;;5128864;27;20700;-88
2020/12/03 04:19:36;;;;;;;43.93;34.33;;;1.20;99.90;;;;;;5126681;27;21270;-88
2020/12/03 04:22:04;;;;;;;43.63;34.00;;;1.30;99.90;;;;;;5130192;27;20586;-88
2020/12/03 04:24:31;;;;;;;46.87;35.30;;;1.20;99.90;;;;;;5127064;27;20589;-87
2020/12/03 04:26:58;;;;;;;40.33;33.73;;;1.20;99.90;;;;;;5124723;27;20618;-88
2020/12/03 04:29:26;;;;;;;43.33;35.07;;;1.20;99.90;;;;;;5123442;27;20794;-87
2020/12/03 04:31:53;;;;;;;44.80;35.77;;;1.30;99.90;;;;;;5127411;27;20642;-88
2020/12/03 04:34:20;;;;;;;43.73;36.00;;;1.30;99.90;;;;;;5125240;27;20994;-87
2020/12/03 04:36:46;;;;;;;46.10;37.00;;;1.30;99.90;;;;;;5109522;27;20618;-88
2020/12/03 04:39:15;;;;;;;39.93;34.90;;;1.30;99.90;;;;;;5128450;27;20681;-86
2020/12/03 04:41:41;;;;;;;42.30;34.50;;;1.40;99.90;;;;;;5125898;27;20626;-88
2020/12/03 04:44:18;;;;;;;39.20;32.50;;;1.30;99.90;;;;;;5128052;27;20631;-86
2020/12/03 04:46:51;;;;;;;42.63;36.10;;;1.40;99.90;;;;;;5128844;27;20606;-86
2020/12/03 04:49:33;;;;;;;38.90;32.50;;;1.40;99.90;;;;;;5125982;27;21025;-86
2020/12/03 04:52:23;;;;;;;42.80;35.33;;;1.40;99.90;;;;;;5125830;27;20971;-87
2020/12/03 04:55:09;;;;;;;40.03;32.10;;;1.50;99.90;;;;;;5126916;27;20643;-87
2020/12/03 04:57:42;;;;;;;41.67;35.20;;;1.50;99.90;;;;;;5129757;27;20633;-87
2020/12/03 05:00:18;;;;;;;42.50;33.27;;;1.50;99.90;;;;;;5124902;27;20679;-87
2020/12/03 05:03:23;;;;;;;41.30;34.40;;;1.50;99.90;;;;;;5122758;27;20630;-88
2020/12/03 05:05:59;;;;;;;44.37;35.00;;;1.60;99.90;;;;;;5104658;27;20641;-87
2020/12/03 05:08:29;;;;;;;41.73;34.90;;;1.50;99.90;;;;;;5131203;27;20706;-87
2020/12/03 05:10:56;;;;;;;42.07;35.33;;;1.50;99.90;;;;;;5131642;27;20619;-87
2020/12/03 05:13:27;;;;;;;41.13;31.77;;;1.50;99.90;;;;;;5106198;27;20622;-88
2020/12/03 05:15:59;;;;;;;42.90;35.60;;;1.50;99.90;;;;;;5127254;27;20994;-88
2020/12/03 05:18:41;;;;;;;40.17;32.60;;;1.50;99.90;;;;;;5122175;27;20603;-88
2020/12/03 05:21:12;;;;;;;39.00;32.57;;;1.40;99.90;;;;;;5124414;27;20720;-87
2020/12/03 05:23:38;;;;;;;40.90;33.10;;;1.50;99.90;;;;;;5126351;27;20598;-86
2020/12/03 05:26:14;;;;;;;43.93;32.67;;;1.60;99.90;;;;;;5126522;27;20611;-87
2020/12/03 05:28:51;;;;;;;37.63;31.67;;;1.60;99.90;;;;;;5122377;27;20629;-86
2020/12/03 05:31:24;;;;;;;38.37;30.97;;;1.60;99.90;;;;;;5123517;27;20724;-86
2020/12/03 05:33:51;;;;;;;35.40;30.60;;;1.70;99.90;;;;;;5121149;27;21176;-86
2020/12/03 05:36:27;;;;;;;40.13;32.60;;;1.60;99.90;;;;;;5122695;27;20627;-87
2020/12/03 05:38:54;;;;;;;36.63;30.57;;;1.70;99.90;;;;;;5120850;27;21239;-87
2020/12/03 05:41:24;;;;;;;36.00;31.77;;;1.80;99.90;;;;;;5130755;27;20623;-87
2020/12/03 05:43:50;;;;;;;38.57;32.43;;;1.80;99.90;;;;;;5128374;27;20591;-87
2020/12/03 05:46:20;;;;;;;42.50;33.40;;;1.90;99.90;;;;;;5125514;27;20619;-87
2020/12/03 05:48:57;;;;;;;40.00;31.60;;;1.80;99.90;;;;;;5134680;27;20641;-87
2020/12/03 05:51:27;;;;;;;36.90;32.30;;;1.80;99.90;;;;;;5152598;27;20599;-87
2020/12/03 05:53:56;;;;;;;36.53;32.00;;;1.70;99.90;;;;;;5132229;27;20603;-87
2020/12/03 05:56:26;;;;;;;39.07;33.10;;;1.70;99.90;;;;;;5130295;27;20656;-88
2020/12/03 05:58:53;;;;;;;43.67;36.33;;;1.80;99.90;;;;;;5123963;27;20777;-88
2020/12/03 06:01:21;;;;;;;47.70;39.10;;;1.80;99.90;;;;;;5124588;27;20619;-88
2020/12/03 06:04:03;;;;;;;45.07;36.83;;;1.90;99.90;;;;;;5129075;27;20625;-88
2020/12/03 06:07:02;;;;;;;41.13;34.03;;;1.80;99.90;;;;;;5124899;27;20627;-88
2020/12/03 06:10:04;;;;;;;43.10;34.07;;;1.60;99.90;;;;;;5102150;27;20645;-87
2020/12/03 06:12:43;;;;;;;41.23;34.00;;;1.80;99.90;;;;;;5126399;27;20622;-88
2020/12/03 06:15:39;;;;;;;36.27;32.33;;;1.80;99.90;;;;;;5129655;27;20638;-88
2020/12/03 06:18:22;;;;;;;44.33;34.47;;;1.80;99.90;;;;;;5118108;27;20958;-88
2020/12/03 06:21:03;;;;;;;45.27;35.13;;;1.90;99.90;;;;;;5123939;27;20690;-87
2020/12/03 06:23:46;;;;;;;44.87;34.07;;;2.00;99.90;;;;;;5128581;27;20630;-86
2020/12/03 06:26:23;;;;;;;46.40;34.50;;;1.90;99.90;;;;;;5126017;27;20615;-87
2020/12/03 06:29:11;;;;;;;48.13;36.13;;;1.90;99.90;;;;;;5121233;27;21000;-88
2020/12/03 06:32:04;;;;;;;44.27;35.47;;;1.80;99.90;;;;;;5123145;27;20643;-88
2020/12/03 06:34:36;;;;;;;37.40;31.00;;;1.70;99.90;;;;;;5125620;27;20638;-87
2020/12/03 06:37:07;;;;;;;41.40;32.43;;;1.80;99.90;;;;;;5124831;27;21045;-87
2020/12/03 06:39:48;;;;;;;37.80;31.00;;;1.80;99.90;;;;;;5105794;27;20685;-87
2020/12/03 06:42:26;;;;;;;35.90;31.80;;;1.90;99.90;;;;;;5125814;27;20646;-88
2020/12/03 06:45:00;;;;;;;43.07;35.03;;;1.80;99.90;;;;;;5121403;27;20619;-89
2020/12/03 06:47:49;;;;;;;44.60;35.67;;;1.80;99.90;;;;;;5122419;27;20606;-88
2020/12/03 06:50:49;;;;;;;48.77;38.87;;;1.80;99.90;;;;;;5127879;27;20670;-88
2020/12/03 06:53:51;;;;;;;41.57;33.30;;;1.80;99.90;;;;;;5125162;27;20630;-88
2020/12/03 06:56:42;;;;;;;48.77;36.40;;;1.80;99.90;;;;;;5133214;27;20630;-88
2020/12/03 06:59:35;;;;;;;49.43;39.60;;;1.90;99.90;;;;;;5150149;27;20658;-88
2020/12/03 07:02:22;;;;;;;42.20;35.27;;;1.90;99.90;;;;;;5116723;27;20651;-89
2020/12/03 07:05:14;;;;;;;38.80;32.73;;;1.90;99.90;;;;;;5134986;27;20615;-87
2020/12/03 07:08:24;;;;;;;42.13;33.40;;;2.00;99.90;;;;;;5124748;27;21173;-87
2020/12/03 07:11:35;;;;;;;42.23;33.43;;;1.80;99.90;;;;;;5126075;27;20623;-87
2020/12/03 07:14:43;;;;;;;40.30;34.13;;;1.90;99.90;;;;;;5124229;27;21199;-88
2020/12/03 07:17:46;;;;;;;39.67;34.07;;;2.00;99.90;;;;;;5128114;27;21173;-88
2020/12/03 07:21:04;;;;;;;45.30;33.93;;;1.90;99.90;;;;;;5123610;27;20667;-87
2020/12/03 07:23:37;;;;;;;41.37;31.17;;;2.10;99.90;;;;;;5128289;27;20599;-88
2020/12/03 07:26:14;;;;;;;37.97;31.77;;;2.10;99.90;;;;;;5126124;27;20627;-86
2020/12/03 07:28:45;;;;;;;36.27;31.10;;;2.00;99.90;;;;;;5123098;27;20625;-88
2020/12/03 07:31:20;;;;;;;39.50;31.30;;;2.00;99.90;;;;;;5132442;27;20623;-88
2020/12/03 07:34:04;;;;;;;40.63;33.23;;;2.00;99.90;;;;;;5118185;27;20630;-87
2020/12/03 07:36:38;;;;;;;41.17;33.13;;;1.90;99.90;;;;;;5128989;27;20625;-87
2020/12/03 07:39:09;;;;;;;38.57;31.70;;;2.00;99.90;;;;;;5102093;27;20674;-88
2020/12/03 07:41:46;;;;;;;37.10;30.83;;;2.10;99.90;;;;;;5124090;27;20585;-87
2020/12/03 07:44:33;;;;;;;38.27;30.40;;;2.00;99.90;;;;;;5118962;27;20587;-87
2020/12/03 07:47:32;;;;;;;40.17;31.90;;;2.10;99.90;;;;;;5123020;27;20625;-87
2020/12/03 07:50:03;;;;;;;38.70;30.50;;;2.00;99.90;;;;;;5116852;27;20651;-88
2020/12/03 07:52:32;;;;;;;45.53;37.37;;;2.10;99.90;;;;;;5123326;27;20629;-88
2020/12/03 07:55:37;;;;;;;41.97;34.80;;;2.00;99.90;;;;;;5122390;27;20635;-88
2020/12/03 07:58:04;;;;;;;37.93;32.37;;;2.30;99.90;;;;;;5120357;27;20715;-87
2020/12/03 08:00:48;;;;;;;40.20;32.00;;;2.30;99.90;;;;;;5131223;27;20668;-87
2020/12/03 08:03:43;;;;;;;42.50;31.63;;;2.20;99.90;;;;;;5122414;27;20672;-87
2020/12/03 08:06:29;;;;;;;41.33;34.00;;;2.20;99.90;;;;;;5126043;27;20623;-87
2020/12/03 08:09:22;;;;;;;39.27;32.87;;;2.10;99.90;;;;;;5104105;27;20650;-88
2020/12/03 08:11:50;;;;;;;37.20;31.30;;;2.10;99.90;;;;;;5119504;27;20714;-87
2020/12/03 08:14:39;;;;;;;36.33;30.10;;;2.20;99.90;;;;;;5127645;27;20608;-88
2020/12/03 08:17:31;;;;;;;38.20;31.00;;;2.20;99.90;;;;;;5129882;27;20618;-89
2020/12/03 08:20:23;;;;;;;36.93;31.70;;;2.20;99.90;;;;;;5112928;27;20772;-89
2020/12/03 08:23:07;;;;;;;36.33;32.30;;;2.30;99.90;;;;;;5127708;27;20608;-88
2020/12/03 08:25:33;;;;;;;36.10;29.10;;;2.20;99.90;;;;;;5132628;27;20730;-88
2020/12/03 08:28:01;;;;;;;35.63;30.53;;;2.50;99.90;;;;;;5130568;27;21044;-88
2020/12/03 08:30:34;;;;;;;31.80;27.70;;;2.50;99.90;;;;;;5131901;27;20635;-88
2020/12/03 08:33:06;;;;;;;32.67;29.03;;;2.50;99.90;;;;;;5127560;27;20699;-88
2020/12/03 08:35:32;;;;;;;32.07;28.37;;;2.40;99.90;;;;;;5132150;27;21258;-88
2020/12/03 08:38:01;;;;;;;35.17;28.90;;;2.40;99.90;;;;;;5132377;27;20617;-88
2020/12/03 08:40:30;;;;;;;33.20;28.37;;;2.50;99.90;;;;;;5129225;27;21192;-88
2020/12/03 08:42:57;;;;;;;37.20;28.03;;;2.60;99.90;;;;;;5115366;27;20622;-87
2020/12/03 08:45:25;;;;;;;31.53;27.63;;;2.50;99.90;;;;;;5124941;27;20643;-88
2020/12/03 08:47:53;;;;;;;29.40;25.90;;;2.50;99.90;;;;;;5113218;27;20637;-88
2020/12/03 08:50:20;;;;;;;28.17;25.17;;;2.50;99.90;;;;;;5114583;27;20735;-88
2020/12/03 08:52:47;;;;;;;29.33;25.80;;;2.60;99.90;;;;;;5123785;27;20618;-88
2020/12/03 08:55:14;;;;;;;31.23;25.30;;;2.50;99.90;;;;;;5145065;27;20715;-88
2020/12/03 08:57:44;;;;;;;29.30;25.00;;;2.70;99.90;;;;;;5131507;27;20657;-87
2020/12/03 09:00:14;;;;;;;30.40;24.17;;;2.70;99.90;;;;;;5125394;27;20659;-88
2020/12/03 09:02:42;;;;;;;27.43;24.47;;;2.70;99.90;;;;;;5123668;27;20622;-88
2020/12/03 09:05:11;;;;;;;27.73;24.80;;;2.80;99.90;;;;;;5129909;27;20654;-88
2020/12/03 09:07:42;;;;;;;27.97;24.83;;;2.80;99.90;;;;;;5127130;27;21169;-88
2020/12/03 09:10:10;;;;;;;28.47;25.30;;;2.90;99.90;;;;;;5133320;27;20679;-87
2020/12/03 09:12:39;;;;;;;29.83;26.70;;;2.90;99.90;;;;;;5125259;27;20622;-88
2020/12/03 09:15:07;;;;;;;31.70;26.77;;;2.90;99.90;;;;;;5127737;27;21027;-88
2020/12/03 09:17:38;;;;;;;29.33;26.10;;;2.70;99.90;;;;;;5123310;27;20904;-88
2020/12/03 09:20:06;;;;;;;29.03;25.50;;;2.90;99.90;;;;;;5116761;27;20662;-88
2020/12/03 09:22:34;;;;;;;28.93;25.90;;;2.90;99.90;;;;;;5119932;27;20637;-88
2020/12/03 09:25:05;;;;;;;29.80;25.17;;;3.00;99.90;;;;;;5124275;27;20767;-88
2020/12/03 09:27:36;;;;;;;32.10;27.00;;;3.10;99.90;;;;;;5127538;27;21188;-88
2020/12/03 09:30:04;;;;;;;29.97;26.33;;;3.00;99.90;;;;;;5126959;27;20631;-87
2020/12/03 09:32:31;;;;;;;31.90;27.70;;;2.90;99.90;;;;;;5125145;27;20643;-88
2020/12/03 09:34:59;;;;;;;29.87;26.73;;;2.80;99.90;;;;;;5131052;27;20651;-88
2020/12/03 09:37:28;;;;;;;34.40;27.10;;;2.90;99.90;;;;;;5126755;27;20603;-87
2020/12/03 09:39:56;;;;;;;35.57;28.80;;;2.80;99.90;;;;;;5124270;27;20659;-87
2020/12/03 09:42:24;;;;;;;30.73;27.43;;;2.80;99.90;;;;;;5127975;27;20623;-89
2020/12/03 09:44:57;;;;;;;31.57;28.17;;;2.70;99.90;;;;;;5129374;27;20654;-87
2020/12/03 09:47:27;;;;;;;30.73;26.37;;;2.70;99.90;;;;;;5136254;27;20637;-87
2020/12/03 09:49:54;;;;;;;31.37;26.40;;;2.80;99.90;;;;;;5128468;27;20634;-88
2020/12/03 09:52:23;;;;;;;29.90;26.60;;;2.70;99.90;;;;;;5119336;27;20626;-87
2020/12/03 09:54:50;;;;;;;27.73;24.73;;;2.90;99.90;;;;;;5128889;27;20646;-88
2020/12/03 09:57:16;;;;;;;27.07;23.90;;;3.00;99.90;;;;;;5131232;27;21005;-88
2020/12/03 09:59:43;;;;;;;27.83;24.27;;;3.00;99.90;;;;;;5126448;27;21612;-87
2020/12/03 10:02:41;;;;;;;27.20;24.30;;;3.20;99.90;;;;;;5129201;27;20622;-88
2020/12/03 10:05:21;;;;;;;29.83;24.17;;;3.10;99.90;;;;;;5099993;27;21219;-88
2020/12/03 10:08:28;;;;;;;28.10;25.17;;;3.20;99.90;;;;;;5108364;27;20964;-88
2020/12/03 10:11:09;;;;;;;27.37;24.57;;;3.40;99.90;;;;;;5126973;27;20614;-87
2020/12/03 10:13:56;;;;;;;25.37;22.73;;;3.50;99.90;;;;;;5121801;27;20658;-87
2020/12/03 10:16:28;;;;;;;23.73;21.23;;;3.60;99.90;;;;;;5122901;27;20631;-88
2020/12/03 10:18:58;;;;;;;24.40;21.43;;;3.60;99.90;;;;;;5129344;27;21368;-88
2020/12/03 10:21:27;;;;;;;25.77;20.77;;;3.60;99.90;;;;;;5123713;27;20627;-87
2020/12/03 10:24:02;;;;;;;24.10;21.13;;;3.70;99.90;;;;;;5128577;27;21226;-88
2020/12/03 10:26:35;;;;;;;22.47;20.10;;;3.70;99.90;;;;;;5124403;27;20615;-87
2020/12/03 10:29:36;;;;;;;21.00;18.80;;;3.60;99.90;;;;;;5123817;27;20648;-87
2020/12/03 10:32:10;;;;;;;23.73;21.10;;;3.70;99.90;;;;;;5123926;27;20695;-88
2020/12/03 10:34:39;;;;;;;23.17;20.63;;;3.70;99.90;;;;;;5129330;27;20646;-88
2020/12/03 10:37:12;;;;;;;23.53;20.73;;;3.90;99.90;;;;;;5126741;27;20633;-87
2020/12/03 10:39:47;;;;;;;22.17;19.80;;;3.80;99.90;;;;;;5126202;27;20672;-88
2020/12/03 10:42:15;;;;;;;27.33;22.43;;;4.00;99.90;;;;;;5111088;27;20733;-88
2020/12/03 10:44:47;;;;;;;22.07;19.73;;;4.00;99.90;;;;;;5122781;27;20654;-88
2020/12/03 10:47:18;;;;;;;20.50;18.33;;;4.00;99.90;;;;;;5133808;27;20636;-88
2020/12/03 10:49:46;;;;;;;20.57;18.30;;;3.90;99.90;;;;;;5126349;27;20727;-88
2020/12/03 10:52:13;;;;;;;19.70;16.73;;;4.00;99.90;;;;;;5131733;27;21169;-88
2020/12/03 10:54:41;;;;;;;18.10;14.97;;;4.30;99.90;;;;;;5126052;27;20743;-87
2020/12/03 10:57:23;;;;;;;17.80;16.00;;;4.20;99.90;;;;;;5126104;27;21385;-87
2020/12/03 10:59:50;;;;;;;19.73;16.43;;;4.40;99.90;;;;;;5124374;27;20754;-87
2020/12/03 11:02:23;;;;;;;18.47;16.57;;;4.50;99.90;;;;;;5124684;27;21169;-87
2020/12/03 11:04:51;;;;;;;18.07;16.20;;;4.60;99.90;;;;;;5130093;27;21223;-88
2020/12/03 11:07:18;;;;;;;19.87;15.90;;;4.70;99.90;;;;;;5132654;27;20643;-88
2020/12/03 11:09:51;;;;;;;17.57;15.80;;;4.60;99.90;;;;;;5129531;27;20710;-87
2020/12/03 11:12:18;;;;;;;17.13;15.30;;;4.50;99.90;;;;;;5128520;27;20612;-88
2020/12/03 11:14:45;;;;;;;16.30;14.37;;;4.60;99.90;;;;;;5127433;27;20642;-88
2020/12/03 11:17:44;;;;;;;18.30;15.60;;;4.70;99.90;;;;;;5125049;27;20611;-87
2020/12/03 11:20:13;;;;;;;19.77;17.67;;;4.70;99.90;;;;;;5119016;27;20657;-88
2020/12/03 11:23:00;;;;;;;16.63;14.90;;;4.80;99.90;;;;;;5124339;27;20611;-87
2020/12/03 11:25:29;;;;;;;13.07;11.77;;;4.70;99.90;;;;;;5122754;27;20646;-87
2020/12/03 11:27:59;;;;;;;15.37;13.70;;;4.70;99.90;;;;;;5127099;27;20619;-88
2020/12/03 11:30:28;;;;;;;15.30;13.87;;;4.70;99.90;;;;;;5125351;27;21229;-87
2020/12/03 11:32:56;;;;;;;12.93;11.63;;;4.80;99.90;;;;;;5130282;27;20631;-87
2020/12/03 11:35:27;;;;;;;10.43;8.43;;;4.80;99.90;;;;;;5123258;27;20661;-87
2020/12/03 11:37:54;;;;;;;10.20;9.20;;;4.70;99.80;;;;;;5129171;27;20646;-87
2020/12/03 11:40:33;;;;;;;9.30;8.50;;;4.60;99.90;;;;;;5122637;27;20692;-88
2020/12/03 11:43:16;;;;;;;9.23;7.90;;;4.60;99.70;;;;;;5129087;27;20687;-87
2020/12/03 11:46:25;;;;;;;9.50;8.67;;;4.50;99.60;;;;;;5137381;27;20686;-88
2020/12/03 11:48:52;;;;;;;10.60;8.80;;;4.50;99.60;;;;;;5131255;27;20657;-86
2020/12/03 11:51:37;;;;;;;9.07;8.17;;;4.70;99.70;;;;;;5140683;27;20682;-86
2020/12/03 11:54:05;;;;;;;10.47;8.63;;;4.70;99.20;;;;;;5154521;27;20697;-86
2020/12/03 11:56:32;;;;;;;8.93;8.17;;;4.70;99.20;;;;;;5134315;27;20619;-87
2020/12/03 11:59:11;;;;;;;9.17;8.20;;;4.70;99.10;;;;;;5133807;27;20629;-87
2020/12/03 12:01:38;;;;;;;8.03;7.33;;;4.70;99.40;;;;;;5130061;27;20622;-88
2020/12/03 12:04:07;;;;;;;9.40;8.60;;;4.60;99.50;;;;;;5131884;27;20649;-87
2020/12/03 12:06:39;;;;;;;9.27;8.37;;;4.60;99.40;;;;;;5129170;27;20630;-87
2020/12/03 12:09:12;;;;;;;10.30;7.47;;;4.60;99.30;;;;;;5126986;27;20647;-87
2020/12/03 12:11:40;;;;;;;9.03;8.13;;;4.60;99.90;;;;;;5128513;27;20634;-86
2020/12/03 12:14:06;;;;;;;8.40;7.67;;;4.70;99.20;;;;;;5132695;27;20689;-87
2020/12/03 12:16:33;;;;;;;9.67;7.43;;;4.60;99.50;;;;;;5114056;27;21153;-87
2020/12/03 12:19:00;;;;;;;9.83;8.90;;;4.60;99.90;;;;;;5128074;27;21222;-87
2020/12/03 12:21:30;;;;;;;13.40;8.90;;;4.50;99.90;;;;;;5129621;27;20750;-86
2020/12/03 12:23:56;;;;;;;8.30;7.50;;;4.30;99.90;;;;;;5129588;27;20651;-86
2020/12/03 12:26:22;;;;;;;9.30;8.37;;;4.50;99.90;;;;;;5131303;27;21176;-86
2020/12/03 12:28:49;;;;;;;8.67;7.67;;;4.50;99.90;;;;;;5131428;27;20638;-87
2020/12/03 12:31:15;;;;;;;9.60;8.50;;;4.50;99.90;;;;;;5132443;27;20616;-86
2020/12/03 12:33:42;;;;;;;10.63;7.17;;;4.50;99.50;;;;;;5129897;27;20627;-87
2020/12/03 12:36:08;;;;;;;8.87;8.07;;;4.40;99.90;;;;;;5128142;27;20626;-88
2020/12/03 12:38:36;;;;;;;8.40;7.60;;;4.60;99.80;;;;;;5140497;27;20623;-87
2020/12/03 12:41:02;;;;;;;8.40;7.60;;;4.60;99.30;;;;;;5149421;27;20651;-87
2020/12/03 12:43:29;;;;;;;8.63;7.77;;;4.60;99.80;;;;;;5150002;27;20638;-87
2020/12/03 12:45:55;;;;;;;8.73;7.83;;;4.60;99.90;;;;;;5149832;27;20615;-86
2020/12/03 12:48:21;;;;;;;10.17;8.57;;;4.60;99.90;;;;;;5146328;27;20682;-87
2020/12/03 12:50:48;;;;;;;11.10;8.50;;;4.60;99.90;;;;;;5144457;27;20642;-87
2020/12/03 12:53:15;;;;;;;9.10;8.10;;;4.60;99.90;;;;;;5140701;27;20677;-87
2020/12/03 12:55:42;;;;;;;9.23;8.33;;;4.60;99.90;;;;;;5136700;27;21029;-87
2020/12/03 12:58:08;;;;;;;8.37;7.13;;;4.70;99.90;;;;;;5130653;27;20620;-87
2020/12/03 13:00:35;;;;;;;8.53;7.60;;;4.80;99.90;;;;;;5124837;27;20666;-87
2020/12/03 13:03:01;;;;;;;8.97;8.07;;;4.70;99.90;;;;;;5126892;27;20654;-87
2020/12/03 13:05:27;;;;;;;8.27;7.43;;;4.80;99.70;;;;;;5128259;27;21007;-88